sensor_id;sensor_type;location;lat;lon;timestamp;P1;durP1;ratioP1;P2;durP2;ratioP2
66380;SDS011;53177;52.648;1.214;2023-08-06T00:01:25;9.70;;;2.50;;
66380;SDS011;53177;52.648;1.214;2023-08-06T00:03:51;8.70;;;2.47;;
66380;SDS011;53177;52.648;1.214;2023-08-06T00:06:16;13.67;;;3.00;;
66380;SDS011;53177;52.648;1.214;2023-08-06T00:08:42;12.87;;;2.97;;
66380;SDS011;53177;52.648;1.214;2023-08-06T00:11:07;9.98;;;2.75;;
66380;SDS011;53177;52.648;1.214;2023-08-06T00:13:33;15.18;;;3.20;;
66380;SDS011;53177;52.648;1.214;2023-08-06T00:16:08;12.77;;;3.27;;
66380;SDS011;53177;52.648;1.214;2023-08-06T00:18:37;10.02;;;2.90;;
66380;SDS011;53177;52.648;1.214;2023-08-06T00:21:04;11.40;;;2.60;;
66380;SDS011;53177;52.648;1.214;2023-08-06T00:23:29;12.50;;;2.50;;
66380;SDS011;53177;52.648;1.214;2023-08-06T00:25:54;13.23;;;2.80;;
66380;SDS011;53177;52.648;1.214;2023-08-06T00:28:20;11.57;;;2.53;;
66380;SDS011;53177;52.648;1.214;2023-08-06T00:30:45;9.85;;;2.40;;
66380;SDS011;53177;52.648;1.214;2023-08-06T00:33:10;12.07;;;2.47;;
66380;SDS011;53177;52.648;1.214;2023-08-06T00:35:36;9.50;;;2.40;;
66380;SDS011;53177;52.648;1.214;2023-08-06T00:38:01;11.97;;;2.33;;
66380;SDS011;53177;52.648;1.214;2023-08-06T00:40:27;11.17;;;2.00;;
66380;SDS011;53177;52.648;1.214;2023-08-06T00:42:55;10.00;;;2.20;;
66380;SDS011;53177;52.648;1.214;2023-08-06T00:45:20;11.23;;;1.97;;
66380;SDS011;53177;52.648;1.214;2023-08-06T00:47:47;9.18;;;1.70;;
66380;SDS011;53177;52.648;1.214;2023-08-06T00:50:13;7.43;;;1.77;;
66380;SDS011;53177;52.648;1.214;2023-08-06T00:52:38;6.47;;;1.53;;
66380;SDS011;53177;52.648;1.214;2023-08-06T00:55:04;8.70;;;2.00;;
66380;SDS011;53177;52.648;1.214;2023-08-06T00:57:30;10.85;;;1.92;;
66380;SDS011;53177;52.648;1.214;2023-08-06T00:59:56;8.33;;;1.53;;
66380;SDS011;53177;52.648;1.214;2023-08-06T01:02:21;10.18;;;1.95;;
66380;SDS011;53177;52.648;1.214;2023-08-06T01:04:47;8.10;;;1.53;;
66380;SDS011;53177;52.648;1.214;2023-08-06T01:07:27;8.03;;;2.00;;
66380;SDS011;53177;52.648;1.214;2023-08-06T01:12:41;8.50;;;1.77;;
66380;SDS011;53177;52.648;1.214;2023-08-06T01:15:15;5.70;;;1.48;;
66380;SDS011;53177;52.648;1.214;2023-08-06T01:17:45;8.00;;;1.80;;
66380;SDS011;53177;52.648;1.214;2023-08-06T01:20:10;5.78;;;1.48;;
66380;SDS011;53177;52.648;1.214;2023-08-06T01:22:36;9.23;;;1.80;;
66380;SDS011;53177;52.648;1.214;2023-08-06T01:25:01;8.02;;;2.00;;
66380;SDS011;53177;52.648;1.214;2023-08-06T01:27:32;7.93;;;2.10;;
66380;SDS011;53177;52.648;1.214;2023-08-06T01:30:02;10.05;;;2.05;;
66380;SDS011;53177;52.648;1.214;2023-08-06T01:32:32;11.77;;;2.28;;
66380;SDS011;53177;52.648;1.214;2023-08-06T01:35:00;8.27;;;2.00;;
66380;SDS011;53177;52.648;1.214;2023-08-06T01:37:27;12.00;;;2.10;;
66380;SDS011;53177;52.648;1.214;2023-08-06T01:39:53;8.93;;;2.80;;
66380;SDS011;53177;52.648;1.214;2023-08-06T01:42:18;13.98;;;3.65;;
66380;SDS011;53177;52.648;1.214;2023-08-06T01:44:44;14.07;;;3.47;;
66380;SDS011;53177;52.648;1.214;2023-08-06T01:47:09;10.80;;;3.23;;
66380;SDS011;53177;52.648;1.214;2023-08-06T01:49:35;13.23;;;3.70;;
66380;SDS011;53177;52.648;1.214;2023-08-06T01:52:00;17.33;;;4.00;;
66380;SDS011;53177;52.648;1.214;2023-08-06T01:54:26;14.57;;;3.70;;
66380;SDS011;53177;52.648;1.214;2023-08-06T01:56:52;10.88;;;3.50;;
66380;SDS011;53177;52.648;1.214;2023-08-06T01:59:18;10.43;;;3.80;;
66380;SDS011;53177;52.648;1.214;2023-08-06T02:01:43;12.90;;;3.60;;
66380;SDS011;53177;52.648;1.214;2023-08-06T02:04:08;11.13;;;3.72;;
66380;SDS011;53177;52.648;1.214;2023-08-06T02:06:34;15.77;;;4.80;;
66380;SDS011;53177;52.648;1.214;2023-08-06T02:08:59;15.03;;;3.63;;
66380;SDS011;53177;52.648;1.214;2023-08-06T02:11:24;12.43;;;4.10;;
66380;SDS011;53177;52.648;1.214;2023-08-06T02:13:50;12.07;;;3.60;;
66380;SDS011;53177;52.648;1.214;2023-08-06T02:16:15;12.63;;;3.80;;
66380;SDS011;53177;52.648;1.214;2023-08-06T02:18:40;13.33;;;4.20;;
66380;SDS011;53177;52.648;1.214;2023-08-06T02:21:06;21.30;;;4.27;;
66380;SDS011;53177;52.648;1.214;2023-08-06T02:23:31;11.60;;;3.80;;
66380;SDS011;53177;52.648;1.214;2023-08-06T02:26:05;13.00;;;4.03;;
66380;SDS011;53177;52.648;1.214;2023-08-06T02:28:31;12.35;;;3.92;;
66380;SDS011;53177;52.648;1.214;2023-08-06T02:30:57;15.95;;;4.55;;
66380;SDS011;53177;52.648;1.214;2023-08-06T02:33:23;15.57;;;4.13;;
66380;SDS011;53177;52.648;1.214;2023-08-06T02:35:48;9.88;;;4.03;;
66380;SDS011;53177;52.648;1.214;2023-08-06T02:38:13;12.40;;;4.27;;
66380;SDS011;53177;52.648;1.214;2023-08-06T02:40:45;12.50;;;4.13;;
66380;SDS011;53177;52.648;1.214;2023-08-06T02:43:11;17.83;;;4.10;;
66380;SDS011;53177;52.648;1.214;2023-08-06T02:45:37;12.87;;;3.57;;
66380;SDS011;53177;52.648;1.214;2023-08-06T02:48:02;13.15;;;3.83;;
66380;SDS011;53177;52.648;1.214;2023-08-06T02:50:28;10.25;;;3.60;;
66380;SDS011;53177;52.648;1.214;2023-08-06T02:52:54;13.52;;;3.95;;
66380;SDS011;53177;52.648;1.214;2023-08-06T02:55:20;13.10;;;4.20;;
66380;SDS011;53177;52.648;1.214;2023-08-06T02:57:45;13.47;;;3.67;;
66380;SDS011;53177;52.648;1.214;2023-08-06T03:00:11;9.70;;;3.17;;
66380;SDS011;53177;52.648;1.214;2023-08-06T03:02:38;11.98;;;3.85;;
66380;SDS011;53177;52.648;1.214;2023-08-06T03:05:03;14.07;;;3.40;;
66380;SDS011;53177;52.648;1.214;2023-08-06T03:07:29;11.15;;;2.90;;
66380;SDS011;53177;52.648;1.214;2023-08-06T03:09:55;9.00;;;3.17;;
66380;SDS011;53177;52.648;1.214;2023-08-06T03:12:20;13.57;;;3.30;;
66380;SDS011;53177;52.648;1.214;2023-08-06T03:14:45;11.37;;;3.10;;
66380;SDS011;53177;52.648;1.214;2023-08-06T03:17:11;12.20;;;3.20;;
66380;SDS011;53177;52.648;1.214;2023-08-06T03:19:37;11.40;;;2.72;;
66380;SDS011;53177;52.648;1.214;2023-08-06T03:22:02;10.00;;;2.83;;
66380;SDS011;53177;52.648;1.214;2023-08-06T03:24:28;10.48;;;3.20;;
66380;SDS011;53177;52.648;1.214;2023-08-06T03:26:53;10.37;;;3.10;;
66380;SDS011;53177;52.648;1.214;2023-08-06T03:29:19;12.90;;;3.20;;
66380;SDS011;53177;52.648;1.214;2023-08-06T03:31:45;10.27;;;2.90;;
66380;SDS011;53177;52.648;1.214;2023-08-06T03:34:10;8.00;;;2.33;;
66380;SDS011;53177;52.648;1.214;2023-08-06T03:36:35;12.97;;;3.00;;
66380;SDS011;53177;52.648;1.214;2023-08-06T03:39:01;11.10;;;2.40;;
66380;SDS011;53177;52.648;1.214;2023-08-06T03:41:26;12.73;;;2.93;;
66380;SDS011;53177;52.648;1.214;2023-08-06T03:43:51;14.90;;;2.67;;
66380;SDS011;53177;52.648;1.214;2023-08-06T03:46:17;12.37;;;2.40;;
66380;SDS011;53177;52.648;1.214;2023-08-06T03:48:42;12.57;;;2.10;;
66380;SDS011;53177;52.648;1.214;2023-08-06T03:51:08;11.80;;;2.80;;
66380;SDS011;53177;52.648;1.214;2023-08-06T03:53:36;9.88;;;2.20;;
66380;SDS011;53177;52.648;1.214;2023-08-06T03:56:05;11.27;;;2.03;;
66380;SDS011;53177;52.648;1.214;2023-08-06T03:58:33;12.75;;;2.47;;
66380;SDS011;53177;52.648;1.214;2023-08-06T04:01:06;13.73;;;2.55;;
66380;SDS011;53177;52.648;1.214;2023-08-06T04:03:33;14.00;;;2.80;;
66380;SDS011;53177;52.648;1.214;2023-08-06T04:05:59;19.20;;;2.78;;
66380;SDS011;53177;52.648;1.214;2023-08-06T04:08:26;15.80;;;2.13;;
66380;SDS011;53177;52.648;1.214;2023-08-06T04:10:52;20.30;;;2.55;;
66380;SDS011;53177;52.648;1.214;2023-08-06T04:13:17;13.10;;;2.37;;
66380;SDS011;53177;52.648;1.214;2023-08-06T04:15:44;12.15;;;2.13;;
66380;SDS011;53177;52.648;1.214;2023-08-06T04:18:09;12.67;;;2.60;;
66380;SDS011;53177;52.648;1.214;2023-08-06T04:20:34;11.55;;;1.90;;
66380;SDS011;53177;52.648;1.214;2023-08-06T04:23:05;10.30;;;2.00;;
66380;SDS011;53177;52.648;1.214;2023-08-06T04:25:31;13.70;;;2.58;;
66380;SDS011;53177;52.648;1.214;2023-08-06T04:27:56;14.88;;;2.35;;
66380;SDS011;53177;52.648;1.214;2023-08-06T04:30:22;14.93;;;2.13;;
66380;SDS011;53177;52.648;1.214;2023-08-06T04:32:49;14.48;;;2.30;;
66380;SDS011;53177;52.648;1.214;2023-08-06T04:35:14;15.43;;;2.78;;
66380;SDS011;53177;52.648;1.214;2023-08-06T04:37:40;13.03;;;2.03;;
66380;SDS011;53177;52.648;1.214;2023-08-06T04:40:05;9.77;;;2.03;;
66380;SDS011;53177;52.648;1.214;2023-08-06T04:42:31;11.93;;;2.10;;
66380;SDS011;53177;52.648;1.214;2023-08-06T04:44:56;15.07;;;2.20;;
66380;SDS011;53177;52.648;1.214;2023-08-06T04:47:22;15.03;;;2.33;;
66380;SDS011;53177;52.648;1.214;2023-08-06T04:49:47;17.02;;;2.72;;
66380;SDS011;53177;52.648;1.214;2023-08-06T04:52:12;15.27;;;2.42;;
66380;SDS011;53177;52.648;1.214;2023-08-06T04:54:38;10.60;;;2.20;;
66380;SDS011;53177;52.648;1.214;2023-08-06T04:57:03;10.30;;;2.10;;
66380;SDS011;53177;52.648;1.214;2023-08-06T04:59:29;7.97;;;2.00;;
66380;SDS011;53177;52.648;1.214;2023-08-06T05:01:54;11.70;;;2.53;;
66380;SDS011;53177;52.648;1.214;2023-08-06T05:04:19;11.25;;;2.35;;
66380;SDS011;53177;52.648;1.214;2023-08-06T05:06:45;9.67;;;2.30;;
66380;SDS011;53177;52.648;1.214;2023-08-06T05:09:10;11.10;;;1.87;;
66380;SDS011;53177;52.648;1.214;2023-08-06T05:11:35;12.30;;;1.90;;
66380;SDS011;53177;52.648;1.214;2023-08-06T05:14:01;11.23;;;1.70;;
66380;SDS011;53177;52.648;1.214;2023-08-06T05:16:26;11.97;;;1.90;;
66380;SDS011;53177;52.648;1.214;2023-08-06T05:18:52;11.77;;;2.10;;
66380;SDS011;53177;52.648;1.214;2023-08-06T05:21:17;12.23;;;1.85;;
66380;SDS011;53177;52.648;1.214;2023-08-06T05:23:42;10.73;;;1.80;;
66380;SDS011;53177;52.648;1.214;2023-08-06T05:26:08;8.20;;;1.80;;
66380;SDS011;53177;52.648;1.214;2023-08-06T05:28:34;11.27;;;1.77;;
66380;SDS011;53177;52.648;1.214;2023-08-06T05:31:03;15.55;;;2.30;;
66380;SDS011;53177;52.648;1.214;2023-08-06T05:33:30;11.35;;;2.10;;
66380;SDS011;53177;52.648;1.214;2023-08-06T05:35:55;10.40;;;2.20;;
66380;SDS011;53177;52.648;1.214;2023-08-06T05:38:21;12.40;;;2.10;;
66380;SDS011;53177;52.648;1.214;2023-08-06T05:40:46;15.27;;;2.17;;
66380;SDS011;53177;52.648;1.214;2023-08-06T05:43:12;9.60;;;2.10;;
66380;SDS011;53177;52.648;1.214;2023-08-06T05:45:38;13.87;;;2.40;;
66380;SDS011;53177;52.648;1.214;2023-08-06T05:48:03;12.53;;;1.97;;
66380;SDS011;53177;52.648;1.214;2023-08-06T05:50:29;11.20;;;2.08;;
66380;SDS011;53177;52.648;1.214;2023-08-06T05:52:56;15.27;;;1.95;;
66380;SDS011;53177;52.648;1.214;2023-08-06T05:55:21;11.95;;;2.22;;
66380;SDS011;53177;52.648;1.214;2023-08-06T05:57:47;12.47;;;2.13;;
66380;SDS011;53177;52.648;1.214;2023-08-06T06:00:13;10.07;;;1.77;;
66380;SDS011;53177;52.648;1.214;2023-08-06T06:02:39;10.10;;;1.70;;
66380;SDS011;53177;52.648;1.214;2023-08-06T06:05:04;7.57;;;1.60;;
66380;SDS011;53177;52.648;1.214;2023-08-06T06:07:30;9.77;;;1.77;;
66380;SDS011;53177;52.648;1.214;2023-08-06T06:09:55;8.67;;;1.90;;
66380;SDS011;53177;52.648;1.214;2023-08-06T06:12:20;12.70;;;2.00;;
66380;SDS011;53177;52.648;1.214;2023-08-06T06:14:47;14.27;;;2.10;;
66380;SDS011;53177;52.648;1.214;2023-08-06T06:17:12;13.10;;;2.07;;
66380;SDS011;53177;52.648;1.214;2023-08-06T06:19:38;9.47;;;2.20;;
66380;SDS011;53177;52.648;1.214;2023-08-06T06:22:03;10.18;;;2.13;;
66380;SDS011;53177;52.648;1.214;2023-08-06T06:24:29;8.20;;;2.00;;
66380;SDS011;53177;52.648;1.214;2023-08-06T06:26:54;8.97;;;1.97;;
66380;SDS011;53177;52.648;1.214;2023-08-06T06:29:19;7.17;;;1.97;;
66380;SDS011;53177;52.648;1.214;2023-08-06T06:31:45;6.77;;;2.60;;
66380;SDS011;53177;52.648;1.214;2023-08-06T06:34:10;9.87;;;2.90;;
66380;SDS011;53177;52.648;1.214;2023-08-06T06:36:35;7.93;;;3.20;;
66380;SDS011;53177;52.648;1.214;2023-08-06T06:39:01;9.90;;;3.47;;
66380;SDS011;53177;52.648;1.214;2023-08-06T06:41:26;8.30;;;3.10;;
66380;SDS011;53177;52.648;1.214;2023-08-06T06:43:54;9.85;;;3.58;;
66380;SDS011;53177;52.648;1.214;2023-08-06T06:46:19;11.60;;;3.50;;
66380;SDS011;53177;52.648;1.214;2023-08-06T06:48:45;8.73;;;3.00;;
66380;SDS011;53177;52.648;1.214;2023-08-06T06:51:10;16.80;;;3.63;;
66380;SDS011;53177;52.648;1.214;2023-08-06T06:53:36;9.33;;;2.73;;
66380;SDS011;53177;52.648;1.214;2023-08-06T06:56:02;9.00;;;2.90;;
66380;SDS011;53177;52.648;1.214;2023-08-06T06:58:29;11.82;;;3.15;;
66380;SDS011;53177;52.648;1.214;2023-08-06T07:00:55;11.95;;;3.33;;
66380;SDS011;53177;52.648;1.214;2023-08-06T07:03:20;7.85;;;2.17;;
66380;SDS011;53177;52.648;1.214;2023-08-06T07:05:46;11.40;;;2.27;;
66380;SDS011;53177;52.648;1.214;2023-08-06T07:08:11;10.70;;;2.57;;
66380;SDS011;53177;52.648;1.214;2023-08-06T07:10:37;9.50;;;2.30;;
66380;SDS011;53177;52.648;1.214;2023-08-06T07:13:03;10.95;;;2.50;;
66380;SDS011;53177;52.648;1.214;2023-08-06T07:15:28;13.40;;;3.03;;
66380;SDS011;53177;52.648;1.214;2023-08-06T07:17:53;14.50;;;2.70;;
66380;SDS011;53177;52.648;1.214;2023-08-06T07:20:19;10.43;;;2.80;;
66380;SDS011;53177;52.648;1.214;2023-08-06T07:22:45;6.50;;;2.60;;
66380;SDS011;53177;52.648;1.214;2023-08-06T07:25:11;9.63;;;2.43;;
66380;SDS011;53177;52.648;1.214;2023-08-06T07:27:36;14.37;;;2.53;;
66380;SDS011;53177;52.648;1.214;2023-08-06T07:30:03;12.00;;;2.97;;
66380;SDS011;53177;52.648;1.214;2023-08-06T07:32:30;12.70;;;2.85;;
66380;SDS011;53177;52.648;1.214;2023-08-06T07:34:55;11.47;;;2.23;;
66380;SDS011;53177;52.648;1.214;2023-08-06T07:37:25;11.85;;;2.72;;
66380;SDS011;53177;52.648;1.214;2023-08-06T07:39:53;10.67;;;2.40;;
66380;SDS011;53177;52.648;1.214;2023-08-06T07:42:19;13.35;;;3.13;;
66380;SDS011;53177;52.648;1.214;2023-08-06T07:44:49;14.48;;;3.00;;
66380;SDS011;53177;52.648;1.214;2023-08-06T07:47:24;10.82;;;2.90;;
66380;SDS011;53177;52.648;1.214;2023-08-06T07:49:50;10.88;;;3.13;;
66380;SDS011;53177;52.648;1.214;2023-08-06T07:52:15;12.80;;;2.90;;
66380;SDS011;53177;52.648;1.214;2023-08-06T07:54:40;13.63;;;2.87;;
66380;SDS011;53177;52.648;1.214;2023-08-06T07:57:06;8.88;;;2.97;;
66380;SDS011;53177;52.648;1.214;2023-08-06T07:59:31;13.40;;;2.80;;
66380;SDS011;53177;52.648;1.214;2023-08-06T08:01:57;9.53;;;2.57;;
66380;SDS011;53177;52.648;1.214;2023-08-06T08:04:23;12.90;;;3.10;;
66380;SDS011;53177;52.648;1.214;2023-08-06T08:06:48;11.35;;;3.35;;
66380;SDS011;53177;52.648;1.214;2023-08-06T08:09:14;11.33;;;3.07;;
66380;SDS011;53177;52.648;1.214;2023-08-06T08:11:39;10.93;;;2.87;;
66380;SDS011;53177;52.648;1.214;2023-08-06T08:14:05;10.55;;;3.20;;
66380;SDS011;53177;52.648;1.214;2023-08-06T08:16:31;10.40;;;3.10;;
66380;SDS011;53177;52.648;1.214;2023-08-06T08:18:56;10.40;;;3.03;;
66380;SDS011;53177;52.648;1.214;2023-08-06T08:21:22;13.87;;;3.23;;
66380;SDS011;53177;52.648;1.214;2023-08-06T08:23:49;11.70;;;3.13;;
66380;SDS011;53177;52.648;1.214;2023-08-06T08:26:15;14.48;;;3.50;;
66380;SDS011;53177;52.648;1.214;2023-08-06T08:28:40;11.67;;;3.20;;
66380;SDS011;53177;52.648;1.214;2023-08-06T08:31:08;9.97;;;3.17;;
66380;SDS011;53177;52.648;1.214;2023-08-06T08:33:37;10.73;;;3.10;;
66380;SDS011;53177;52.648;1.214;2023-08-06T08:36:03;10.23;;;3.20;;
66380;SDS011;53177;52.648;1.214;2023-08-06T08:38:29;10.65;;;2.70;;
66380;SDS011;53177;52.648;1.214;2023-08-06T08:40:54;11.52;;;3.33;;
66380;SDS011;53177;52.648;1.214;2023-08-06T08:43:23;10.27;;;2.90;;
66380;SDS011;53177;52.648;1.214;2023-08-06T08:45:49;10.70;;;2.70;;
66380;SDS011;53177;52.648;1.214;2023-08-06T08:48:15;11.55;;;3.35;;
66380;SDS011;53177;52.648;1.214;2023-08-06T08:50:44;11.20;;;2.80;;
66380;SDS011;53177;52.648;1.214;2023-08-06T08:53:11;12.15;;;4.03;;
66380;SDS011;53177;52.648;1.214;2023-08-06T08:55:37;8.18;;;2.20;;
66380;SDS011;53177;52.648;1.214;2023-08-06T08:58:03;9.00;;;2.45;;
66380;SDS011;53177;52.648;1.214;2023-08-06T09:00:29;10.60;;;2.38;;
66380;SDS011;53177;52.648;1.214;2023-08-06T09:02:56;10.15;;;2.13;;
66380;SDS011;53177;52.648;1.214;2023-08-06T09:05:23;7.95;;;2.00;;
66380;SDS011;53177;52.648;1.214;2023-08-06T09:07:52;6.95;;;2.15;;
66380;SDS011;53177;52.648;1.214;2023-08-06T09:10:18;8.68;;;1.67;;
66380;SDS011;53177;52.648;1.214;2023-08-06T09:12:48;12.70;;;2.10;;
66380;SDS011;53177;52.648;1.214;2023-08-06T09:15:16;7.35;;;1.65;;
66380;SDS011;53177;52.648;1.214;2023-08-06T09:17:41;7.90;;;2.20;;
66380;SDS011;53177;52.648;1.214;2023-08-06T09:20:13;7.87;;;1.90;;
66380;SDS011;53177;52.648;1.214;2023-08-06T09:22:40;7.07;;;1.50;;
66380;SDS011;53177;52.648;1.214;2023-08-06T09:25:06;10.40;;;2.15;;
66380;SDS011;53177;52.648;1.214;2023-08-06T09:27:36;8.00;;;1.60;;
66380;SDS011;53177;52.648;1.214;2023-08-06T09:30:02;9.02;;;1.42;;
66380;SDS011;53177;52.648;1.214;2023-08-06T09:32:50;7.22;;;1.58;;
66380;SDS011;53177;52.648;1.214;2023-08-06T09:35:18;8.25;;;1.85;;
66380;SDS011;53177;52.648;1.214;2023-08-06T09:37:43;7.30;;;1.33;;
66380;SDS011;53177;52.648;1.214;2023-08-06T09:40:29;5.43;;;1.53;;
66380;SDS011;53177;52.648;1.214;2023-08-06T09:42:57;5.05;;;1.20;;
66380;SDS011;53177;52.648;1.214;2023-08-06T09:45:23;6.57;;;1.60;;
66380;SDS011;53177;52.648;1.214;2023-08-06T09:47:58;7.63;;;1.77;;
66380;SDS011;53177;52.648;1.214;2023-08-06T09:50:27;7.35;;;1.45;;
66380;SDS011;53177;52.648;1.214;2023-08-06T09:52:58;9.52;;;1.40;;
66380;SDS011;53177;52.648;1.214;2023-08-06T09:55:27;6.45;;;1.52;;
66380;SDS011;53177;52.648;1.214;2023-08-06T09:57:53;10.93;;;1.70;;
66380;SDS011;53177;52.648;1.214;2023-08-06T10:00:20;6.93;;;1.55;;
66380;SDS011;53177;52.648;1.214;2023-08-06T10:02:47;8.23;;;1.38;;
66380;SDS011;53177;52.648;1.214;2023-08-06T10:05:14;7.05;;;1.33;;
66380;SDS011;53177;52.648;1.214;2023-08-06T10:07:41;6.63;;;1.55;;
66380;SDS011;53177;52.648;1.214;2023-08-06T10:10:08;9.32;;;2.08;;
66380;SDS011;53177;52.648;1.214;2023-08-06T10:12:35;9.25;;;1.60;;
66380;SDS011;53177;52.648;1.214;2023-08-06T10:15:06;5.68;;;1.33;;
66380;SDS011;53177;52.648;1.214;2023-08-06T10:17:35;10.05;;;2.67;;
66380;SDS011;53177;52.648;1.214;2023-08-06T10:20:03;7.25;;;1.92;;
66380;SDS011;53177;52.648;1.214;2023-08-06T10:22:31;9.18;;;1.52;;
66380;SDS011;53177;52.648;1.214;2023-08-06T10:24:58;7.30;;;1.50;;
66380;SDS011;53177;52.648;1.214;2023-08-06T10:27:39;8.35;;;1.80;;
66380;SDS011;53177;52.648;1.214;2023-08-06T10:33:02;7.35;;;1.60;;
66380;SDS011;53177;52.648;1.214;2023-08-06T10:35:29;7.18;;;1.50;;
66380;SDS011;53177;52.648;1.214;2023-08-06T10:38:14;8.43;;;2.15;;
66380;SDS011;53177;52.648;1.214;2023-08-06T10:41:03;8.23;;;1.70;;
66380;SDS011;53177;52.648;1.214;2023-08-06T10:43:34;6.32;;;1.33;;
66380;SDS011;53177;52.648;1.214;2023-08-06T10:46:03;8.95;;;1.90;;
66380;SDS011;53177;52.648;1.214;2023-08-06T10:48:37;7.10;;;1.60;;
66380;SDS011;53177;52.648;1.214;2023-08-06T10:51:07;6.95;;;1.80;;
66380;SDS011;53177;52.648;1.214;2023-08-06T10:53:34;8.48;;;1.88;;
66380;SDS011;53177;52.648;1.214;2023-08-06T10:56:02;7.82;;;1.55;;
66380;SDS011;53177;52.648;1.214;2023-08-06T10:58:39;10.23;;;1.88;;
66380;SDS011;53177;52.648;1.214;2023-08-06T11:01:05;7.60;;;1.55;;
66380;SDS011;53177;52.648;1.214;2023-08-06T11:03:31;8.15;;;1.90;;
66380;SDS011;53177;52.648;1.214;2023-08-06T11:05:57;7.63;;;1.98;;
66380;SDS011;53177;52.648;1.214;2023-08-06T11:08:26;8.07;;;1.52;;
66380;SDS011;53177;52.648;1.214;2023-08-06T11:10:52;9.95;;;1.80;;
66380;SDS011;53177;52.648;1.214;2023-08-06T11:13:18;5.85;;;1.50;;
66380;SDS011;53177;52.648;1.214;2023-08-06T11:15:45;8.35;;;1.55;;
66380;SDS011;53177;52.648;1.214;2023-08-06T11:18:10;8.40;;;1.52;;
66380;SDS011;53177;52.648;1.214;2023-08-06T11:20:36;5.53;;;1.40;;
66380;SDS011;53177;52.648;1.214;2023-08-06T11:23:02;10.30;;;1.77;;
66380;SDS011;53177;52.648;1.214;2023-08-06T11:25:28;5.47;;;1.35;;
66380;SDS011;53177;52.648;1.214;2023-08-06T11:27:54;7.20;;;1.60;;
66380;SDS011;53177;52.648;1.214;2023-08-06T11:30:20;8.73;;;1.93;;
66380;SDS011;53177;52.648;1.214;2023-08-06T11:32:49;7.40;;;1.70;;
66380;SDS011;53177;52.648;1.214;2023-08-06T11:35:15;9.52;;;1.75;;
66380;SDS011;53177;52.648;1.214;2023-08-06T11:37:44;7.03;;;1.50;;
66380;SDS011;53177;52.648;1.214;2023-08-06T11:40:16;11.82;;;2.25;;
66380;SDS011;53177;52.648;1.214;2023-08-06T11:42:43;6.53;;;1.50;;
66380;SDS011;53177;52.648;1.214;2023-08-06T11:45:08;7.05;;;1.55;;
66380;SDS011;53177;52.648;1.214;2023-08-06T11:47:37;12.23;;;1.55;;
66380;SDS011;53177;52.648;1.214;2023-08-06T11:50:03;9.98;;;1.83;;
66380;SDS011;53177;52.648;1.214;2023-08-06T11:52:30;9.13;;;1.70;;
66380;SDS011;53177;52.648;1.214;2023-08-06T11:57:28;6.13;;;1.50;;
66380;SDS011;53177;52.648;1.214;2023-08-06T11:59:58;6.65;;;1.73;;
66380;SDS011;53177;52.648;1.214;2023-08-06T12:02:26;7.47;;;1.60;;
66380;SDS011;53177;52.648;1.214;2023-08-06T12:05:01;8.13;;;1.45;;
66380;SDS011;53177;52.648;1.214;2023-08-06T12:07:36;6.03;;;1.48;;
66380;SDS011;53177;52.648;1.214;2023-08-06T12:10:03;7.63;;;1.80;;
66380;SDS011;53177;52.648;1.214;2023-08-06T12:12:29;5.97;;;1.35;;
66380;SDS011;53177;52.648;1.214;2023-08-06T12:14:55;7.65;;;1.52;;
66380;SDS011;53177;52.648;1.214;2023-08-06T12:17:21;5.38;;;1.20;;
66380;SDS011;53177;52.648;1.214;2023-08-06T12:19:47;7.22;;;1.33;;
66380;SDS011;53177;52.648;1.214;2023-08-06T12:22:13;5.88;;;1.10;;
66380;SDS011;53177;52.648;1.214;2023-08-06T12:24:42;5.90;;;1.25;;
66380;SDS011;53177;52.648;1.214;2023-08-06T12:27:09;5.68;;;1.30;;
66380;SDS011;53177;52.648;1.214;2023-08-06T12:29:35;5.43;;;1.40;;
66380;SDS011;53177;52.648;1.214;2023-08-06T12:32:03;6.40;;;1.40;;
66380;SDS011;53177;52.648;1.214;2023-08-06T12:34:28;6.90;;;1.20;;
66380;SDS011;53177;52.648;1.214;2023-08-06T12:36:54;8.80;;;1.45;;
66380;SDS011;53177;52.648;1.214;2023-08-06T12:39:19;6.43;;;1.30;;
66380;SDS011;53177;52.648;1.214;2023-08-06T12:41:44;6.30;;;1.30;;
66380;SDS011;53177;52.648;1.214;2023-08-06T12:44:11;4.72;;;1.20;;
66380;SDS011;53177;52.648;1.214;2023-08-06T12:46:37;5.03;;;1.30;;
66380;SDS011;53177;52.648;1.214;2023-08-06T12:49:02;8.90;;;1.30;;
66380;SDS011;53177;52.648;1.214;2023-08-06T12:51:27;6.90;;;1.10;;
66380;SDS011;53177;52.648;1.214;2023-08-06T12:53:53;5.00;;;1.30;;
66380;SDS011;53177;52.648;1.214;2023-08-06T12:56:18;5.67;;;1.00;;
66380;SDS011;53177;52.648;1.214;2023-08-06T12:58:43;6.50;;;1.10;;
66380;SDS011;53177;52.648;1.214;2023-08-06T13:01:09;6.65;;;1.20;;
66380;SDS011;53177;52.648;1.214;2023-08-06T13:03:34;7.03;;;1.40;;
66380;SDS011;53177;52.648;1.214;2023-08-06T13:06:00;7.53;;;1.77;;
66380;SDS011;53177;52.648;1.214;2023-08-06T13:08:25;6.60;;;1.30;;
66380;SDS011;53177;52.648;1.214;2023-08-06T13:10:51;9.07;;;1.77;;
66380;SDS011;53177;52.648;1.214;2023-08-06T13:13:16;7.88;;;1.40;;
66380;SDS011;53177;52.648;1.214;2023-08-06T13:15:41;5.63;;;1.20;;
66380;SDS011;53177;52.648;1.214;2023-08-06T13:18:07;5.60;;;1.30;;
66380;SDS011;53177;52.648;1.214;2023-08-06T13:20:32;7.50;;;1.40;;
66380;SDS011;53177;52.648;1.214;2023-08-06T13:22:58;5.23;;;1.20;;
66380;SDS011;53177;52.648;1.214;2023-08-06T13:25:26;7.07;;;1.85;;
66380;SDS011;53177;52.648;1.214;2023-08-06T13:27:52;5.85;;;1.30;;
66380;SDS011;53177;52.648;1.214;2023-08-06T13:30:18;7.03;;;1.40;;
66380;SDS011;53177;52.648;1.214;2023-08-06T13:32:44;5.63;;;1.30;;
66380;SDS011;53177;52.648;1.214;2023-08-06T13:35:09;4.87;;;1.20;;
66380;SDS011;53177;52.648;1.214;2023-08-06T13:37:35;6.57;;;1.50;;
66380;SDS011;53177;52.648;1.214;2023-08-06T13:40:00;6.33;;;1.70;;
66380;SDS011;53177;52.648;1.214;2023-08-06T13:42:31;5.85;;;1.30;;
66380;SDS011;53177;52.648;1.214;2023-08-06T13:44:57;8.65;;;1.58;;
66380;SDS011;53177;52.648;1.214;2023-08-06T13:47:27;6.20;;;1.42;;
66380;SDS011;53177;52.648;1.214;2023-08-06T13:49:53;5.63;;;1.40;;
66380;SDS011;53177;52.648;1.214;2023-08-06T13:52:18;6.63;;;1.40;;
66380;SDS011;53177;52.648;1.214;2023-08-06T13:54:43;5.75;;;1.45;;
66380;SDS011;53177;52.648;1.214;2023-08-06T13:57:09;6.90;;;1.25;;
66380;SDS011;53177;52.648;1.214;2023-08-06T13:59:34;5.03;;;1.40;;
66380;SDS011;53177;52.648;1.214;2023-08-06T14:01:59;4.10;;;1.30;;
66380;SDS011;53177;52.648;1.214;2023-08-06T14:04:25;6.33;;;1.40;;
66380;SDS011;53177;52.648;1.214;2023-08-06T14:06:50;8.13;;;1.83;;
66380;SDS011;53177;52.648;1.214;2023-08-06T14:09:16;6.27;;;1.30;;
66380;SDS011;53177;52.648;1.214;2023-08-06T14:11:43;6.47;;;1.50;;
66380;SDS011;53177;52.648;1.214;2023-08-06T14:14:09;5.60;;;1.30;;
66380;SDS011;53177;52.648;1.214;2023-08-06T14:16:35;6.55;;;1.40;;
66380;SDS011;53177;52.648;1.214;2023-08-06T14:19:01;5.63;;;1.30;;
66380;SDS011;53177;52.648;1.214;2023-08-06T14:21:26;4.88;;;1.20;;
66380;SDS011;53177;52.648;1.214;2023-08-06T14:23:52;6.10;;;1.40;;
66380;SDS011;53177;52.648;1.214;2023-08-06T14:26:17;5.07;;;1.17;;
66380;SDS011;53177;52.648;1.214;2023-08-06T14:28:43;5.77;;;1.30;;
66380;SDS011;53177;52.648;1.214;2023-08-06T14:31:08;5.57;;;1.20;;
66380;SDS011;53177;52.648;1.214;2023-08-06T14:33:34;8.18;;;1.30;;
66380;SDS011;53177;52.648;1.214;2023-08-06T14:35:59;4.87;;;1.30;;
66380;SDS011;53177;52.648;1.214;2023-08-06T14:38:25;6.83;;;1.30;;
66380;SDS011;53177;52.648;1.214;2023-08-06T14:40:50;5.30;;;1.70;;
66380;SDS011;53177;52.648;1.214;2023-08-06T14:43:15;5.53;;;1.20;;
66380;SDS011;53177;52.648;1.214;2023-08-06T14:45:41;7.47;;;1.20;;